sensor_id;sensor_type;location;lat;lon;timestamp;temperature;humidity
59847;DHT22;45728;48.788;2.302;2023-02-28T00:01:12;2.90;99.90
59847;DHT22;45728;48.788;2.302;2023-02-28T00:03:39;2.90;99.90
59847;DHT22;45728;48.788;2.302;2023-02-28T00:06:06;2.80;99.90
59847;DHT22;45728;48.788;2.302;2023-02-28T00:08:32;2.90;99.90
59847;DHT22;45728;48.788;2.302;2023-02-28T00:11:02;2.80;99.90
59847;DHT22;45728;48.788;2.302;2023-02-28T00:13:29;2.80;99.90
59847;DHT22;45728;48.788;2.302;2023-02-28T00:16:02;2.80;99.90
59847;DHT22;45728;48.788;2.302;2023-02-28T00:18:29;2.70;99.90
59847;DHT22;45728;48.788;2.302;2023-02-28T00:20:57;2.70;99.90
59847;DHT22;45728;48.788;2.302;2023-02-28T00:23:24;2.70;99.90
59847;DHT22;45728;48.788;2.302;2023-02-28T00:25:50;2.70;99.90
59847;DHT22;45728;48.788;2.302;2023-02-28T00:28:17;2.70;99.90
59847;DHT22;45728;48.788;2.302;2023-02-28T00:30:43;2.70;99.90
59847;DHT22;45728;48.788;2.302;2023-02-28T00:33:09;2.60;99.90
59847;DHT22;45728;48.788;2.302;2023-02-28T00:35:36;2.70;99.90
59847;DHT22;45728;48.788;2.302;2023-02-28T00:38:02;2.70;99.90
59847;DHT22;45728;48.788;2.302;2023-02-28T00:40:29;2.60;99.90
59847;DHT22;45728;48.788;2.302;2023-02-28T00:42:55;2.60;99.90
59847;DHT22;45728;48.788;2.302;2023-02-28T00:45:21;2.60;99.90
59847;DHT22;45728;48.788;2.302;2023-02-28T00:47:47;2.70;99.90
59847;DHT22;45728;48.788;2.302;2023-02-28T00:50:19;2.60;99.90
59847;DHT22;45728;48.788;2.302;2023-02-28T00:52:46;2.60;99.90
59847;DHT22;45728;48.788;2.302;2023-02-28T00:55:12;2.60;99.90
59847;DHT22;45728;48.788;2.302;2023-02-28T00:57:38;2.60;99.90
59847;DHT22;45728;48.788;2.302;2023-02-28T01:00:07;2.60;99.90
59847;DHT22;45728;48.788;2.302;2023-02-28T01:02:33;2.50;99.90
59847;DHT22;45728;48.788;2.302;2023-02-28T01:04:59;2.50;99.90
59847;DHT22;45728;48.788;2.302;2023-02-28T01:07:26;2.50;99.90
59847;DHT22;45728;48.788;2.302;2023-02-28T01:09:52;2.50;99.90
59847;DHT22;45728;48.788;2.302;2023-02-28T01:12:18;2.50;99.90
59847;DHT22;45728;48.788;2.302;2023-02-28T01:14:44;2.50;99.90
59847;DHT22;45728;48.788;2.302;2023-02-28T01:17:10;2.40;99.90
59847;DHT22;45728;48.788;2.302;2023-02-28T01:19:36;2.40;99.90
59847;DHT22;45728;48.788;2.302;2023-02-28T01:22:04;2.40;99.90
59847;DHT22;45728;48.788;2.302;2023-02-28T01:24:31;2.30;99.90
59847;DHT22;45728;48.788;2.302;2023-02-28T01:26:58;2.40;99.90
59847;DHT22;45728;48.788;2.302;2023-02-28T01:29:24;2.40;99.90
59847;DHT22;45728;48.788;2.302;2023-02-28T01:31:50;2.40;99.90
59847;DHT22;45728;48.788;2.302;2023-02-28T01:34:16;2.40;99.90
59847;DHT22;45728;48.788;2.302;2023-02-28T01:36:44;2.40;99.90
59847;DHT22;45728;48.788;2.302;2023-02-28T01:39:11;2.30;99.90
59847;DHT22;45728;48.788;2.302;2023-02-28T01:41:39;2.30;99.90
59847;DHT22;45728;48.788;2.302;2023-02-28T01:46:35;2.30;99.90
59847;DHT22;45728;48.788;2.302;2023-02-28T01:49:15;2.30;99.90
59847;DHT22;45728;48.788;2.302;2023-02-28T01:51:54;2.30;99.90
59847;DHT22;45728;48.788;2.302;2023-02-28T01:54:29;2.20;99.90
59847;DHT22;45728;48.788;2.302;2023-02-28T01:59:36;2.20;99.90
59847;DHT22;45728;48.788;2.302;2023-02-28T02:02:06;2.20;99.90
59847;DHT22;45728;48.788;2.302;2023-02-28T02:04:38;2.20;99.90
59847;DHT22;45728;48.788;2.302;2023-02-28T02:07:07;2.20;99.90
59847;DHT22;45728;48.788;2.302;2023-02-28T02:09:33;2.20;99.90
59847;DHT22;45728;48.788;2.302;2023-02-28T02:12:05;2.10;99.90
59847;DHT22;45728;48.788;2.302;2023-02-28T02:17:38;2.10;99.90
59847;DHT22;45728;48.788;2.302;2023-02-28T02:20:27;2.10;99.90
59847;DHT22;45728;48.788;2.302;2023-02-28T02:25:45;2.10;99.90
59847;DHT22;45728;48.788;2.302;2023-02-28T02:36:25;2.00;99.90
59847;DHT22;45728;48.788;2.302;2023-02-28T02:41:53;1.90;99.90
59847;DHT22;45728;48.788;2.302;2023-02-28T02:44:30;2.00;99.90
59847;DHT22;45728;48.788;2.302;2023-02-28T02:47:10;2.00;99.90
59847;DHT22;45728;48.788;2.302;2023-02-28T02:49:38;2.00;99.90
59847;DHT22;45728;48.788;2.302;2023-02-28T02:52:11;2.00;99.90
59847;DHT22;45728;48.788;2.302;2023-02-28T02:54:40;2.00;99.90
59847;DHT22;45728;48.788;2.302;2023-02-28T02:57:13;1.90;99.90
59847;DHT22;45728;48.788;2.302;2023-02-28T02:59:41;1.90;99.90
59847;DHT22;45728;48.788;2.302;2023-02-28T03:02:12;1.90;99.90
59847;DHT22;45728;48.788;2.302;2023-02-28T03:04:43;1.90;99.90
59847;DHT22;45728;48.788;2.302;2023-02-28T03:07:11;1.90;99.90
59847;DHT22;45728;48.788;2.302;2023-02-28T03:09:37;1.90;99.90
59847;DHT22;45728;48.788;2.302;2023-02-28T03:12:09;1.90;99.90
59847;DHT22;45728;48.788;2.302;2023-02-28T03:15:02;1.90;99.90
59847;DHT22;45728;48.788;2.302;2023-02-28T03:21:06;1.90;99.90
59847;DHT22;45728;48.788;2.302;2023-02-28T03:23:16;1.80;99.90
59847;DHT22;45728;48.788;2.302;2023-02-28T03:28:27;1.90;99.90
59847;DHT22;45728;48.788;2.302;2023-02-28T03:31:09;1.80;99.90
59847;DHT22;45728;48.788;2.302;2023-02-28T03:33:43;1.80;99.90
59847;DHT22;45728;48.788;2.302;2023-02-28T03:36:13;1.80;99.90
59847;DHT22;45728;48.788;2.302;2023-02-28T03:38:46;1.80;99.90
59847;DHT22;45728;48.788;2.302;2023-02-28T03:41:16;1.80;99.90
59847;DHT22;45728;48.788;2.302;2023-02-28T03:43:49;1.80;99.90
59847;DHT22;45728;48.788;2.302;2023-02-28T03:46:20;1.80;99.90
59847;DHT22;45728;48.788;2.302;2023-02-28T03:49:13;1.80;99.90
59847;DHT22;45728;48.788;2.302;2023-02-28T03:51:42;1.80;99.90
59847;DHT22;45728;48.788;2.302;2023-02-28T03:54:12;1.70;99.90
59847;DHT22;45728;48.788;2.302;2023-02-28T03:56:52;1.70;99.90
59847;DHT22;45728;48.788;2.302;2023-02-28T03:59:28;1.70;99.90
59847;DHT22;45728;48.788;2.302;2023-02-28T04:01:57;1.70;99.90
59847;DHT22;45728;48.788;2.302;2023-02-28T04:04:24;1.70;99.90
59847;DHT22;45728;48.788;2.302;2023-02-28T04:06:51;1.70;99.90
59847;DHT22;45728;48.788;2.302;2023-02-28T04:09:18;1.60;99.90
59847;DHT22;45728;48.788;2.302;2023-02-28T04:11:51;1.60;99.90
59847;DHT22;45728;48.788;2.302;2023-02-28T04:14:18;1.60;99.90
59847;DHT22;45728;48.788;2.302;2023-02-28T04:16:44;1.60;99.90
59847;DHT22;45728;48.788;2.302;2023-02-28T04:19:12;1.60;99.90
59847;DHT22;45728;48.788;2.302;2023-02-28T04:22:00;1.60;99.90
59847;DHT22;45728;48.788;2.302;2023-02-28T04:24:27;1.60;99.90
59847;DHT22;45728;48.788;2.302;2023-02-28T04:26:55;1.60;99.90
59847;DHT22;45728;48.788;2.302;2023-02-28T04:29:27;1.50;99.90
59847;DHT22;45728;48.788;2.302;2023-02-28T04:31:55;1.50;99.90
59847;DHT22;45728;48.788;2.302;2023-02-28T04:34:23;1.50;99.90
59847;DHT22;45728;48.788;2.302;2023-02-28T04:36:50;1.50;99.90
59847;DHT22;45728;48.788;2.302;2023-02-28T04:39:17;1.50;99.90
59847;DHT22;45728;48.788;2.302;2023-02-28T04:41:45;1.50;99.90
59847;DHT22;45728;48.788;2.302;2023-02-28T04:44:11;1.40;99.90
59847;DHT22;45728;48.788;2.302;2023-02-28T04:46:37;1.40;99.90
59847;DHT22;45728;48.788;2.302;2023-02-28T04:49:03;1.40;99.90
59847;DHT22;45728;48.788;2.302;2023-02-28T04:51:30;1.40;99.90
59847;DHT22;45728;48.788;2.302;2023-02-28T04:53:56;1.40;99.90
59847;DHT22;45728;48.788;2.302;2023-02-28T04:56:22;1.40;99.90
59847;DHT22;45728;48.788;2.302;2023-02-28T04:58:49;1.50;99.90
59847;DHT22;45728;48.788;2.302;2023-02-28T05:01:20;1.40;99.90
59847;DHT22;45728;48.788;2.302;2023-02-28T05:03:46;1.40;99.90
59847;DHT22;45728;48.788;2.302;2023-02-28T05:06:13;1.40;99.90
59847;DHT22;45728;48.788;2.302;2023-02-28T05:08:40;1.40;99.90
59847;DHT22;45728;48.788;2.302;2023-02-28T05:11:12;1.40;99.90
59847;DHT22;45728;48.788;2.302;2023-02-28T05:13:39;1.30;99.90
59847;DHT22;45728;48.788;2.302;2023-02-28T05:16:05;1.30;99.90
59847;DHT22;45728;48.788;2.302;2023-02-28T05:18:31;1.30;99.90
59847;DHT22;45728;48.788;2.302;2023-02-28T05:20:57;1.30;99.90
59847;DHT22;45728;48.788;2.302;2023-02-28T05:23:24;1.40;99.90
59847;DHT22;45728;48.788;2.302;2023-02-28T05:25:50;1.40;99.90
59847;DHT22;45728;48.788;2.302;2023-02-28T05:28:17;1.40;99.90
59847;DHT22;45728;48.788;2.302;2023-02-28T05:30:45;1.40;99.90
59847;DHT22;45728;48.788;2.302;2023-02-28T05:33:12;1.40;99.90
59847;DHT22;45728;48.788;2.302;2023-02-28T05:35:39;1.40;99.90
59847;DHT22;45728;48.788;2.302;2023-02-28T05:38:06;1.40;99.90
59847;DHT22;45728;48.788;2.302;2023-02-28T05:40:32;1.40;99.90
59847;DHT22;45728;48.788;2.302;2023-02-28T05:42:58;1.40;99.90
59847;DHT22;45728;48.788;2.302;2023-02-28T05:45:24;1.40;99.90
59847;DHT22;45728;48.788;2.302;2023-02-28T05:47:53;1.30;99.90
59847;DHT22;45728;48.788;2.302;2023-02-28T05:50:19;1.30;99.90
59847;DHT22;45728;48.788;2.302;2023-02-28T05:52:52;1.30;99.90
59847;DHT22;45728;48.788;2.302;2023-02-28T05:55:18;1.20;99.90
59847;DHT22;45728;48.788;2.302;2023-02-28T05:57:45;1.20;99.90
59847;DHT22;45728;48.788;2.302;2023-02-28T06:00:12;1.20;99.90
59847;DHT22;45728;48.788;2.302;2023-02-28T06:02:40;1.10;99.90
59847;DHT22;45728;48.788;2.302;2023-02-28T06:05:17;1.10;99.90
59847;DHT22;45728;48.788;2.302;2023-02-28T06:07:44;1.10;99.90
59847;DHT22;45728;48.788;2.302;2023-02-28T06:10:11;1.10;99.90
59847;DHT22;45728;48.788;2.302;2023-02-28T06:12:37;1.10;99.90
59847;DHT22;45728;48.788;2.302;2023-02-28T06:15:04;1.10;99.90
59847;DHT22;45728;48.788;2.302;2023-02-28T06:17:30;1.00;99.90
59847;DHT22;45728;48.788;2.302;2023-02-28T06:19:56;1.00;99.90
59847;DHT22;45728;48.788;2.302;2023-02-28T06:22:22;1.10;99.90
59847;DHT22;45728;48.788;2.302;2023-02-28T06:24:48;1.00;99.90
59847;DHT22;45728;48.788;2.302;2023-02-28T06:27:14;1.00;99.90
59847;DHT22;45728;48.788;2.302;2023-02-28T06:29:40;1.00;99.90
59847;DHT22;45728;48.788;2.302;2023-02-28T06:32:06;0.90;99.90
59847;DHT22;45728;48.788;2.302;2023-02-28T06:34:32;1.00;99.90
59847;DHT22;45728;48.788;2.302;2023-02-28T06:36:59;1.00;99.90
59847;DHT22;45728;48.788;2.302;2023-02-28T06:39:30;0.90;99.90
59847;DHT22;45728;48.788;2.302;2023-02-28T06:41:56;0.80;99.90
59847;DHT22;45728;48.788;2.302;2023-02-28T06:44:23;0.80;99.90
59847;DHT22;45728;48.788;2.302;2023-02-28T06:46:50;0.80;99.90
59847;DHT22;45728;48.788;2.302;2023-02-28T06:49:16;0.80;99.90
59847;DHT22;45728;48.788;2.302;2023-02-28T06:51:44;0.80;99.90
59847;DHT22;45728;48.788;2.302;2023-02-28T06:54:13;0.80;99.90
59847;DHT22;45728;48.788;2.302;2023-02-28T06:56:40;0.80;99.90
59847;DHT22;45728;48.788;2.302;2023-02-28T06:59:06;0.80;99.90
59847;DHT22;45728;48.788;2.302;2023-02-28T07:01:32;0.80;99.90
59847;DHT22;45728;48.788;2.302;2023-02-28T07:03:59;0.80;99.90
59847;DHT22;45728;48.788;2.302;2023-02-28T07:06:26;0.90;99.90
59847;DHT22;45728;48.788;2.302;2023-02-28T07:08:53;0.80;99.90
59847;DHT22;45728;48.788;2.302;2023-02-28T07:11:21;0.80;99.90
59847;DHT22;45728;48.788;2.302;2023-02-28T07:13:49;0.80;99.90
59847;DHT22;45728;48.788;2.302;2023-02-28T07:16:16;0.80;99.90
59847;DHT22;45728;48.788;2.302;2023-02-28T07:18:42;0.90;99.90
59847;DHT22;45728;48.788;2.302;2023-02-28T07:21:09;0.80;99.90
59847;DHT22;45728;48.788;2.302;2023-02-28T07:23:36;0.80;99.90
59847;DHT22;45728;48.788;2.302;2023-02-28T07:26:07;0.80;99.90
59847;DHT22;45728;48.788;2.302;2023-02-28T07:28:37;0.90;99.90
59847;DHT22;45728;48.788;2.302;2023-02-28T07:31:05;0.90;99.90
59847;DHT22;45728;48.788;2.302;2023-02-28T07:33:32;0.90;99.90
59847;DHT22;45728;48.788;2.302;2023-02-28T07:36:11;0.90;99.90
59847;DHT22;45728;48.788;2.302;2023-02-28T07:38:42;0.90;99.90
59847;DHT22;45728;48.788;2.302;2023-02-28T07:41:09;0.90;99.90
59847;DHT22;45728;48.788;2.302;2023-02-28T07:43:36;1.00;99.90
59847;DHT22;45728;48.788;2.302;2023-02-28T07:46:07;1.00;99.90
59847;DHT22;45728;48.788;2.302;2023-02-28T07:48:34;1.00;99.90
59847;DHT22;45728;48.788;2.302;2023-02-28T07:51:01;1.00;99.90
59847;DHT22;45728;48.788;2.302;2023-02-28T07:53:28;1.10;99.90
59847;DHT22;45728;48.788;2.302;2023-02-28T07:55:59;1.20;99.90
59847;DHT22;45728;48.788;2.302;2023-02-28T07:58:27;1.10;99.90
59847;DHT22;45728;48.788;2.302;2023-02-28T08:00:54;1.20;99.90
59847;DHT22;45728;48.788;2.302;2023-02-28T08:03:21;1.20;99.90
59847;DHT22;45728;48.788;2.302;2023-02-28T08:05:47;1.20;99.90
59847;DHT22;45728;48.788;2.302;2023-02-28T08:08:15;1.20;99.90
59847;DHT22;45728;48.788;2.302;2023-02-28T08:10:41;1.20;99.90
59847;DHT22;45728;48.788;2.302;2023-02-28T08:13:07;1.20;99.90
59847;DHT22;45728;48.788;2.302;2023-02-28T08:15:33;1.20;99.90
59847;DHT22;45728;48.788;2.302;2023-02-28T08:17:59;1.20;99.90
59847;DHT22;45728;48.788;2.302;2023-02-28T08:20:26;1.30;99.90
59847;DHT22;45728;48.788;2.302;2023-02-28T08:22:52;1.30;99.90
59847;DHT22;45728;48.788;2.302;2023-02-28T08:25:19;1.30;99.90
59847;DHT22;45728;48.788;2.302;2023-02-28T08:27:45;1.30;99.90
59847;DHT22;45728;48.788;2.302;2023-02-28T08:30:13;1.40;99.90
59847;DHT22;45728;48.788;2.302;2023-02-28T08:32:40;1.50;99.90
59847;DHT22;45728;48.788;2.302;2023-02-28T08:35:06;1.50;99.90
59847;DHT22;45728;48.788;2.302;2023-02-28T08:37:32;1.50;99.90
59847;DHT22;45728;48.788;2.302;2023-02-28T08:39:59;1.60;99.90
59847;DHT22;45728;48.788;2.302;2023-02-28T08:42:25;1.60;99.90
59847;DHT22;45728;48.788;2.302;2023-02-28T08:44:51;1.70;99.90
59847;DHT22;45728;48.788;2.302;2023-02-28T08:47:17;1.80;99.90
59847;DHT22;45728;48.788;2.302;2023-02-28T08:49:43;1.90;99.90
59847;DHT22;45728;48.788;2.302;2023-02-28T08:52:09;1.90;99.90
59847;DHT22;45728;48.788;2.302;2023-02-28T08:54:35;2.00;99.90
59847;DHT22;45728;48.788;2.302;2023-02-28T08:57:02;2.00;99.90
59847;DHT22;45728;48.788;2.302;2023-02-28T08:59:29;2.10;99.90
59847;DHT22;45728;48.788;2.302;2023-02-28T09:01:55;2.20;99.90
59847;DHT22;45728;48.788;2.302;2023-02-28T09:04:22;2.20;99.90
59847;DHT22;45728;48.788;2.302;2023-02-28T09:06:48;2.30;99.90
59847;DHT22;45728;48.788;2.302;2023-02-28T09:09:15;2.30;99.90
59847;DHT22;45728;48.788;2.302;2023-02-28T09:11:41;2.40;99.90
59847;DHT22;45728;48.788;2.302;2023-02-28T09:14:08;2.40;99.90
59847;DHT22;45728;48.788;2.302;2023-02-28T09:16:34;2.50;99.90
59847;DHT22;45728;48.788;2.302;2023-02-28T09:19:01;2.40;99.90
59847;DHT22;45728;48.788;2.302;2023-02-28T09:21:28;2.50;99.90
59847;DHT22;45728;48.788;2.302;2023-02-28T09:23:54;2.60;99.90
59847;DHT22;45728;48.788;2.302;2023-02-28T09:26:23;2.70;99.90
59847;DHT22;45728;48.788;2.302;2023-02-28T09:28:50;2.70;99.90
59847;DHT22;45728;48.788;2.302;2023-02-28T09:31:20;2.70;99.90
59847;DHT22;45728;48.788;2.302;2023-02-28T09:33:52;2.70;99.90
59847;DHT22;45728;48.788;2.302;2023-02-28T09:36:19;3.10;99.90
59847;DHT22;45728;48.788;2.302;2023-02-28T09:38:45;3.60;99.90
59847;DHT22;45728;48.788;2.302;2023-02-28T09:41:16;4.10;99.90
59847;DHT22;45728;48.788;2.302;2023-02-28T09:43:49;4.30;99.90
59847;DHT22;45728;48.788;2.302;2023-02-28T09:46:32;4.70;99.90
59847;DHT22;45728;48.788;2.302;2023-02-28T09:49:03;5.20;99.90
59847;DHT22;45728;48.788;2.302;2023-02-28T09:54:14;5.30;99.90
59847;DHT22;45728;48.788;2.302;2023-02-28T09:56:50;5.80;99.90
59847;DHT22;45728;48.788;2.302;2023-02-28T10:07:23;4.80;99.90
59847;DHT22;45728;48.788;2.302;2023-02-28T10:09:57;5.30;99.90
59847;DHT22;45728;48.788;2.302;2023-02-28T10:12:26;5.50;99.90
59847;DHT22;45728;48.788;2.302;2023-02-28T10:14:54;6.20;99.90
59847;DHT22;45728;48.788;2.302;2023-02-28T10:17:26;6.60;99.90
59847;DHT22;45728;48.788;2.302;2023-02-28T10:24:54;6.70;99.90
59847;DHT22;45728;48.788;2.302;2023-02-28T10:27:24;6.70;99.90
59847;DHT22;45728;48.788;2.302;2023-02-28T10:29:53;6.70;99.90
59847;DHT22;45728;48.788;2.302;2023-02-28T10:32:25;7.70;99.90
59847;DHT22;45728;48.788;2.302;2023-02-28T10:37:23;7.10;99.10
59847;DHT22;45728;48.788;2.302;2023-02-28T10:39:49;6.70;98.80
59847;DHT22;45728;48.788;2.302;2023-02-28T10:42:35;6.10;99.70
59847;DHT22;45728;48.788;2.302;2023-02-28T10:45:16;6.30;98.80
59847;DHT22;45728;48.788;2.302;2023-02-28T10:47:55;7.20;99.20
59847;DHT22;45728;48.788;2.302;2023-02-28T10:50:44;7.10;98.20
59847;DHT22;45728;48.788;2.302;2023-02-28T10:55:42;6.50;97.20
59847;DHT22;45728;48.788;2.302;2023-02-28T10:58:22;6.20;97.00
59847;DHT22;45728;48.788;2.302;2023-02-28T11:00:49;6.10;97.80
59847;DHT22;45728;48.788;2.302;2023-02-28T11:03:32;5.70;97.80
59847;DHT22;45728;48.788;2.302;2023-02-28T11:06:03;5.70;97.90
59847;DHT22;45728;48.788;2.302;2023-02-28T11:08:29;5.60;98.30
59847;DHT22;45728;48.788;2.302;2023-02-28T11:11:03;5.20;96.70
59847;DHT22;45728;48.788;2.302;2023-02-28T11:13:33;5.30;96.30
59847;DHT22;45728;48.788;2.302;2023-02-28T11:16:03;5.60;96.80
59847;DHT22;45728;48.788;2.302;2023-02-28T11:18:41;5.80;96.40
59847;DHT22;45728;48.788;2.302;2023-02-28T11:21:09;5.40;96.80
59847;DHT22;45728;48.788;2.302;2023-02-28T11:23:37;5.10;96.70
59847;DHT22;45728;48.788;2.302;2023-02-28T11:26:06;5.30;96.40
59847;DHT22;45728;48.788;2.302;2023-02-28T11:28:38;5.60;95.80
59847;DHT22;45728;48.788;2.302;2023-02-28T11:33:49;5.90;96.60
59847;DHT22;45728;48.788;2.302;2023-02-28T11:36:23;5.60;96.20
59847;DHT22;45728;48.788;2.302;2023-02-28T11:38:55;5.30;96.70
59847;DHT22;45728;48.788;2.302;2023-02-28T11:46:56;5.50;96.50
59847;DHT22;45728;48.788;2.302;2023-02-28T11:57:32;5.80;97.00
59847;DHT22;45728;48.788;2.302;2023-02-28T12:00:11;6.10;96.10
59847;DHT22;45728;48.788;2.302;2023-02-28T12:05:38;6.20;96.20
59847;DHT22;45728;48.788;2.302;2023-02-28T12:08:15;6.00;95.50
59847;DHT22;45728;48.788;2.302;2023-02-28T12:13:48;5.60;95.90
59847;DHT22;45728;48.788;2.302;2023-02-28T12:16:58;5.70;96.10
59847;DHT22;45728;48.788;2.302;2023-02-28T12:19:20;5.50;96.20
59847;DHT22;45728;48.788;2.302;2023-02-28T12:24:48;5.80;96.20
59847;DHT22;45728;48.788;2.302;2023-02-28T12:27:19;5.80;96.00
59847;DHT22;45728;48.788;2.302;2023-02-28T12:30:02;5.60;96.10
59847;DHT22;45728;48.788;2.302;2023-02-28T12:32:35;5.40;96.10
59847;DHT22;45728;48.788;2.302;2023-02-28T12:35:11;5.20;96.30
59847;DHT22;45728;48.788;2.302;2023-02-28T12:37:46;5.20;96.50
59847;DHT22;45728;48.788;2.302;2023-02-28T12:42:54;5.60;96.50
59847;DHT22;45728;48.788;2.302;2023-02-28T12:45:40;6.00;96.30
59847;DHT22;45728;48.788;2.302;2023-02-28T12:48:11;5.60;96.40
59847;DHT22;45728;48.788;2.302;2023-02-28T12:50:40;5.40;96.80
59847;DHT22;45728;48.788;2.302;2023-02-28T12:56:16;5.80;96.20
59847;DHT22;45728;48.788;2.302;2023-02-28T12:58:47;6.00;96.20
59847;DHT22;45728;48.788;2.302;2023-02-28T13:01:41;5.80;95.80
59847;DHT22;45728;48.788;2.302;2023-02-28T13:04:31;5.80;95.90
59847;DHT22;45728;48.788;2.302;2023-02-28T13:09:32;5.80;96.20
59847;DHT22;45728;48.788;2.302;2023-02-28T13:11:58;5.90;95.80
59847;DHT22;45728;48.788;2.302;2023-02-28T13:19:38;5.50;96.00
59847;DHT22;45728;48.788;2.302;2023-02-28T13:22:17;5.50;96.20
59847;DHT22;45728;48.788;2.302;2023-02-28T13:24:51;5.60;96.20
59847;DHT22;45728;48.788;2.302;2023-02-28T13:27:23;5.60;95.90
59847;DHT22;45728;48.788;2.302;2023-02-28T13:29:51;5.80;95.70
59847;DHT22;45728;48.788;2.302;2023-02-28T13:32:31;5.80;95.10
59847;DHT22;45728;48.788;2.302;2023-02-28T13:39:52;6.10;95.10
59847;DHT22;45728;48.788;2.302;2023-02-28T13:42:34;5.80;95.20
59847;DHT22;45728;48.788;2.302;2023-02-28T13:50:24;5.70;95.70
59847;DHT22;45728;48.788;2.302;2023-02-28T13:53:14;6.10;95.70
59847;DHT22;45728;48.788;2.302;2023-02-28T13:56:00;6.20;95.10
59847;DHT22;45728;48.788;2.302;2023-02-28T13:58:35;6.20;95.00
59847;DHT22;45728;48.788;2.302;2023-02-28T14:06:52;6.00;95.10
59847;DHT22;45728;48.788;2.302;2023-02-28T14:11:45;5.80;95.20
59847;DHT22;45728;48.788;2.302;2023-02-28T14:17:14;6.50;94.20
59847;DHT22;45728;48.788;2.302;2023-02-28T14:19:45;6.70;94.70
59847;DHT22;45728;48.788;2.302;2023-02-28T14:33:40;6.60;94.20
59847;DHT22;45728;48.788;2.302;2023-02-28T14:36:17;6.90;93.50
59847;DHT22;45728;48.788;2.302;2023-02-28T14:38:48;6.80;92.70
59847;DHT22;45728;48.788;2.302;2023-02-28T14:43:54;6.30;93.20
59847;DHT22;45728;48.788;2.302;2023-02-28T14:46:23;6.30;93.10
59847;DHT22;45728;48.788;2.302;2023-02-28T14:48:51;6.20;93.00
59847;DHT22;45728;48.788;2.302;2023-02-28T14:51:22;6.10;92.50
59847;DHT22;45728;48.788;2.302;2023-02-28T14:53:57;5.80;92.50
59847;DHT22;45728;48.788;2.302;2023-02-28T14:56:48;5.70;93.00
59847;DHT22;45728;48.788;2.302;2023-02-28T14:59:42;5.80;93.10
59847;DHT22;45728;48.788;2.302;2023-02-28T15:02:25;5.90;92.90
59847;DHT22;45728;48.788;2.302;2023-02-28T15:04:59;6.20;93.30
59847;DHT22;45728;48.788;2.302;2023-02-28T15:07:26;6.50;92.80
59847;DHT22;45728;48.788;2.302;2023-02-28T15:12:37;5.80;92.30
59847;DHT22;45728;48.788;2.302;2023-02-28T15:15:06;5.50;92.60
59847;DHT22;45728;48.788;2.302;2023-02-28T15:17:34;5.50;92.60
59847;DHT22;45728;48.788;2.302;2023-02-28T15:20:00;5.60;92.70
59847;DHT22;45728;48.788;2.302;2023-02-28T15:22:31;5.60;92.20
59847;DHT22;45728;48.788;2.302;2023-02-28T15:25:00;5.60;92.10
59847;DHT22;45728;48.788;2.302;2023-02-28T15:27:32;5.50;92.60
59847;DHT22;45728;48.788;2.302;2023-02-28T15:30:04;5.70;92.60
59847;DHT22;45728;48.788;2.302;2023-02-28T15:32:35;5.60;92.30
59847;DHT22;45728;48.788;2.302;2023-02-28T15:35:28;5.50;92.50
59847;DHT22;45728;48.788;2.302;2023-02-28T15:38:00;5.90;93.10
59847;DHT22;45728;48.788;2.302;2023-02-28T15:40:29;6.20;92.90
59847;DHT22;45728;48.788;2.302;2023-02-28T15:43:04;6.50;92.50
59847;DHT22;45728;48.788;2.302;2023-02-28T15:45:50;6.30;92.10
59847;DHT22;45728;48.788;2.302;2023-02-28T15:48:23;6.20;92.50
59847;DHT22;45728;48.788;2.302;2023-02-28T15:50:53;6.00;91.70
59847;DHT22;45728;48.788;2.302;2023-02-28T15:53:33;5.90;92.20
59847;DHT22;45728;48.788;2.302;2023-02-28T15:56:05;5.60;92.60
59847;DHT22;45728;48.788;2.302;2023-02-28T15:58:34;5.60;92.70
59847;DHT22;45728;48.788;2.302;2023-02-28T16:01:16;5.60;92.80
59847;DHT22;45728;48.788;2.302;2023-02-28T16:03:48;5.80;93.10
59847;DHT22;45728;48.788;2.302;2023-02-28T16:06:38;5.70;92.90
59847;DHT22;45728;48.788;2.302;2023-02-28T16:09:08;5.60;93.40
59847;DHT22;45728;48.788;2.302;2023-02-28T16:11:38;5.90;93.50
59847;DHT22;45728;48.788;2.302;2023-02-28T16:14:05;6.00;93.10
59847;DHT22;45728;48.788;2.302;2023-02-28T16:16:31;6.00;93.10
59847;DHT22;45728;48.788;2.302;2023-02-28T16:18:58;6.00;93.10
59847;DHT22;45728;48.788;2.302;2023-02-28T16:21:25;5.80;92.60
59847;DHT22;45728;48.788;2.302;2023-02-28T16:23:51;5.80;92.30
59847;DHT22;45728;48.788;2.302;2023-02-28T16:26:23;5.60;92.50
59847;DHT22;45728;48.788;2.302;2023-02-28T16:28:51;5.50;92.20
59847;DHT22;45728;48.788;2.302;2023-02-28T16:31:17;5.40;92.50
59847;DHT22;45728;48.788;2.302;2023-02-28T16:33:44;5.50;92.30
59847;DHT22;45728;48.788;2.302;2023-02-28T16:36:20;5.50;92.40
59847;DHT22;45728;48.788;2.302;2023-02-28T16:38:46;5.50;92.20
59847;DHT22;45728;48.788;2.302;2023-02-28T16:41:16;5.50;92.50
59847;DHT22;45728;48.788;2.302;2023-02-28T16:43:50;5.50;92.30
59847;DHT22;45728;48.788;2.302;2023-02-28T16:46:17;5.40;92.10
59847;DHT22;45728;48.788;2.302;2023-02-28T16:48:46;5.20;92.40
59847;DHT22;45728;48.788;2.302;2023-02-28T16:51:17;5.10;92.30
59847;DHT22;45728;48.788;2.302;2023-02-28T16:53:44;5.10;92.60
59847;DHT22;45728;48.788;2.302;2023-02-28T16:56:24;5.10;92.80
59847;DHT22;45728;48.788;2.302;2023-02-28T16:58:51;5.10;92.80
59847;DHT22;45728;48.788;2.302;2023-02-28T17:01:18;5.00;92.50
59847;DHT22;45728;48.788;2.302;2023-02-28T17:03:50;4.80;93.20
59847;DHT22;45728;48.788;2.302;2023-02-28T17:06:22;4.80;93.00
59847;DHT22;45728;48.788;2.302;2023-02-28T17:08:49;4.90;93.20
59847;DHT22;45728;48.788;2.302;2023-02-28T17:11:16;4.90;93.10
59847;DHT22;45728;48.788;2.302;2023-02-28T17:13:42;4.90;93.10
59847;DHT22;45728;48.788;2.302;2023-02-28T17:16:23;4.90;93.10
59847;DHT22;45728;48.788;2.302;2023-02-28T17:18:51;5.00;93.10
59847;DHT22;45728;48.788;2.302;2023-02-28T17:21:18;5.00;93.20
59847;DHT22;45728;48.788;2.302;2023-02-28T17:23:44;5.00;93.10
59847;DHT22;45728;48.788;2.302;2023-02-28T17:26:18;4.90;92.90
59847;DHT22;45728;48.788;2.302;2023-02-28T17:28:51;4.90;93.20
59847;DHT22;45728;48.788;2.302;2023-02-28T17:31:18;4.90;93.10
59847;DHT22;45728;48.788;2.302;2023-02-28T17:33:44;4.90;92.90
59847;DHT22;45728;48.788;2.302;2023-02-28T17:36:15;4.80;92.90
59847;DHT22;45728;48.788;2.302;2023-02-28T17:38:41;4.80;93.00
59847;DHT22;45728;48.788;2.302;2023-02-28T17:41:10;4.90;93.10
59847;DHT22;45728;48.788;2.302;2023-02-28T17:43:36;4.80;92.90
59847;DHT22;45728;48.788;2.302;2023-02-28T17:46:03;4.80;92.90
59847;DHT22;45728;48.788;2.302;2023-02-28T17:48:32;4.80;93.00
59847;DHT22;45728;48.788;2.302;2023-02-28T17:50:58;4.80;93.00
59847;DHT22;45728;48.788;2.302;2023-02-28T17:53:24;4.90;92.90
59847;DHT22;45728;48.788;2.302;2023-02-28T17:55:50;4.90;93.10
59847;DHT22;45728;48.788;2.302;2023-02-28T17:58:16;4.90;93.40
59847;DHT22;45728;48.788;2.302;2023-02-28T18:00:44;4.90;93.00
59847;DHT22;45728;48.788;2.302;2023-02-28T18:03:12;5.00;93.00
59847;DHT22;45728;48.788;2.302;2023-02-28T18:05:39;4.90;92.90
59847;DHT22;45728;48.788;2.302;2023-02-28T18:08:06;4.90;93.30